sensor_id;sensor_type;location;lat;lon;timestamp;P1;durP1;ratioP1;P2;durP2;ratioP2
70406;SDS011;57821;52.202;0.154;2023-06-22T00:00:39;8.18;;;4.38;;
70406;SDS011;57821;52.202;0.154;2023-06-22T00:03:05;7.20;;;3.80;;
70406;SDS011;57821;52.202;0.154;2023-06-22T00:05:32;8.88;;;4.50;;
70406;SDS011;57821;52.202;0.154;2023-06-22T00:08:01;8.50;;;4.18;;
70406;SDS011;57821;52.202;0.154;2023-06-22T00:10:29;11.07;;;4.55;;
70406;SDS011;57821;52.202;0.154;2023-06-22T00:12:56;8.48;;;4.50;;
70406;SDS011;57821;52.202;0.154;2023-06-22T00:15:23;10.73;;;4.80;;
70406;SDS011;57821;52.202;0.154;2023-06-22T00:17:49;9.43;;;4.53;;
70406;SDS011;57821;52.202;0.154;2023-06-22T00:20:17;8.85;;;4.28;;
70406;SDS011;57821;52.202;0.154;2023-06-22T00:22:46;10.05;;;5.00;;
70406;SDS011;57821;52.202;0.154;2023-06-22T00:25:13;8.68;;;5.18;;
70406;SDS011;57821;52.202;0.154;2023-06-22T00:27:40;11.57;;;5.00;;
70406;SDS011;57821;52.202;0.154;2023-06-22T00:30:06;12.98;;;5.60;;
70406;SDS011;57821;52.202;0.154;2023-06-22T00:32:33;12.05;;;5.18;;
70406;SDS011;57821;52.202;0.154;2023-06-22T00:35:00;7.53;;;5.00;;
70406;SDS011;57821;52.202;0.154;2023-06-22T00:37:28;9.80;;;4.90;;
70406;SDS011;57821;52.202;0.154;2023-06-22T00:39:55;9.60;;;5.15;;
70406;SDS011;57821;52.202;0.154;2023-06-22T00:42:22;9.35;;;4.53;;
70406;SDS011;57821;52.202;0.154;2023-06-22T00:44:49;10.55;;;5.43;;
70406;SDS011;57821;52.202;0.154;2023-06-22T00:47:17;8.60;;;4.78;;
70406;SDS011;57821;52.202;0.154;2023-06-22T00:49:44;9.48;;;4.90;;
70406;SDS011;57821;52.202;0.154;2023-06-22T00:52:13;12.52;;;5.10;;
70406;SDS011;57821;52.202;0.154;2023-06-22T00:54:40;11.75;;;5.20;;
70406;SDS011;57821;52.202;0.154;2023-06-22T00:57:07;12.13;;;5.57;;
70406;SDS011;57821;52.202;0.154;2023-06-22T00:59:34;10.10;;;5.70;;
70406;SDS011;57821;52.202;0.154;2023-06-22T01:02:01;9.32;;;4.97;;
70406;SDS011;57821;52.202;0.154;2023-06-22T01:04:33;11.35;;;5.45;;
70406;SDS011;57821;52.202;0.154;2023-06-22T01:09:52;8.48;;;4.80;;
70406;SDS011;57821;52.202;0.154;2023-06-22T01:12:25;9.75;;;5.30;;
70406;SDS011;57821;52.202;0.154;2023-06-22T01:15:05;13.80;;;5.45;;
70406;SDS011;57821;52.202;0.154;2023-06-22T01:17:37;9.63;;;5.55;;
70406;SDS011;57821;52.202;0.154;2023-06-22T01:20:09;9.40;;;5.30;;
70406;SDS011;57821;52.202;0.154;2023-06-22T01:22:45;10.50;;;5.85;;
70406;SDS011;57821;52.202;0.154;2023-06-22T01:25:45;9.68;;;5.88;;
70406;SDS011;57821;52.202;0.154;2023-06-22T01:28:20;9.73;;;5.68;;
70406;SDS011;57821;52.202;0.154;2023-06-22T01:30:53;10.45;;;5.80;;
70406;SDS011;57821;52.202;0.154;2023-06-22T01:33:20;13.63;;;5.90;;
70406;SDS011;57821;52.202;0.154;2023-06-22T01:35:46;11.43;;;6.80;;
70406;SDS011;57821;52.202;0.154;2023-06-22T01:38:13;10.90;;;6.53;;
70406;SDS011;57821;52.202;0.154;2023-06-22T01:40:40;11.55;;;5.78;;
70406;SDS011;57821;52.202;0.154;2023-06-22T01:43:07;10.30;;;6.50;;
70406;SDS011;57821;52.202;0.154;2023-06-22T01:45:34;11.82;;;5.85;;
70406;SDS011;57821;52.202;0.154;2023-06-22T01:48:01;12.52;;;5.53;;
70406;SDS011;57821;52.202;0.154;2023-06-22T01:50:28;13.32;;;6.38;;
70406;SDS011;57821;52.202;0.154;2023-06-22T01:52:55;12.50;;;5.95;;
70406;SDS011;57821;52.202;0.154;2023-06-22T01:55:22;11.02;;;6.43;;
70406;SDS011;57821;52.202;0.154;2023-06-22T01:57:48;11.70;;;6.53;;
70406;SDS011;57821;52.202;0.154;2023-06-22T02:00:18;11.43;;;6.00;;
70406;SDS011;57821;52.202;0.154;2023-06-22T02:02:52;12.23;;;6.25;;
70406;SDS011;57821;52.202;0.154;2023-06-22T02:05:23;11.98;;;5.75;;
70406;SDS011;57821;52.202;0.154;2023-06-22T02:08:00;10.48;;;6.13;;
70406;SDS011;57821;52.202;0.154;2023-06-22T02:10:34;11.77;;;6.63;;
70406;SDS011;57821;52.202;0.154;2023-06-22T02:13:04;11.73;;;6.30;;
70406;SDS011;57821;52.202;0.154;2023-06-22T02:15:32;12.75;;;6.45;;
70406;SDS011;57821;52.202;0.154;2023-06-22T02:17:59;10.98;;;6.05;;
70406;SDS011;57821;52.202;0.154;2023-06-22T02:20:26;12.18;;;6.50;;
70406;SDS011;57821;52.202;0.154;2023-06-22T02:22:55;10.88;;;6.53;;
70406;SDS011;57821;52.202;0.154;2023-06-22T02:25:22;9.15;;;5.75;;
70406;SDS011;57821;52.202;0.154;2023-06-22T02:27:48;13.00;;;6.57;;
70406;SDS011;57821;52.202;0.154;2023-06-22T02:30:16;12.88;;;6.50;;
70406;SDS011;57821;52.202;0.154;2023-06-22T02:32:42;10.05;;;6.30;;
70406;SDS011;57821;52.202;0.154;2023-06-22T02:35:09;10.40;;;6.07;;
70406;SDS011;57821;52.202;0.154;2023-06-22T02:37:36;11.73;;;6.60;;
70406;SDS011;57821;52.202;0.154;2023-06-22T02:40:04;11.93;;;6.18;;
70406;SDS011;57821;52.202;0.154;2023-06-22T02:42:33;13.25;;;6.55;;
70406;SDS011;57821;52.202;0.154;2023-06-22T02:44:59;15.20;;;7.25;;
70406;SDS011;57821;52.202;0.154;2023-06-22T02:47:26;10.32;;;6.35;;
70406;SDS011;57821;52.202;0.154;2023-06-22T02:49:53;10.63;;;6.45;;
70406;SDS011;57821;52.202;0.154;2023-06-22T02:52:20;9.05;;;6.13;;
70406;SDS011;57821;52.202;0.154;2023-06-22T02:54:46;10.95;;;6.75;;
70406;SDS011;57821;52.202;0.154;2023-06-22T02:57:14;14.15;;;7.30;;
70406;SDS011;57821;52.202;0.154;2023-06-22T02:59:42;12.70;;;7.13;;
70406;SDS011;57821;52.202;0.154;2023-06-22T03:02:11;11.15;;;6.00;;
70406;SDS011;57821;52.202;0.154;2023-06-22T03:04:38;9.55;;;5.88;;
70406;SDS011;57821;52.202;0.154;2023-06-22T03:07:04;13.63;;;6.30;;
70406;SDS011;57821;52.202;0.154;2023-06-22T03:09:32;9.27;;;5.68;;
70406;SDS011;57821;52.202;0.154;2023-06-22T03:11:59;9.68;;;6.13;;
70406;SDS011;57821;52.202;0.154;2023-06-22T03:14:34;12.30;;;6.35;;
70406;SDS011;57821;52.202;0.154;2023-06-22T03:17:04;13.15;;;7.05;;
70406;SDS011;57821;52.202;0.154;2023-06-22T03:19:31;13.60;;;6.28;;
70406;SDS011;57821;52.202;0.154;2023-06-22T03:21:59;10.48;;;6.40;;
70406;SDS011;57821;52.202;0.154;2023-06-22T03:24:26;10.25;;;6.18;;
70406;SDS011;57821;52.202;0.154;2023-06-22T03:26:53;10.63;;;6.53;;
70406;SDS011;57821;52.202;0.154;2023-06-22T03:29:20;13.65;;;6.43;;
70406;SDS011;57821;52.202;0.154;2023-06-22T03:31:46;13.35;;;6.38;;
70406;SDS011;57821;52.202;0.154;2023-06-22T03:34:13;13.90;;;6.93;;
70406;SDS011;57821;52.202;0.154;2023-06-22T03:36:39;11.07;;;6.45;;
70406;SDS011;57821;52.202;0.154;2023-06-22T03:39:06;11.38;;;6.82;;
70406;SDS011;57821;52.202;0.154;2023-06-22T03:41:33;13.02;;;6.40;;
70406;SDS011;57821;52.202;0.154;2023-06-22T03:44:00;10.90;;;6.22;;
70406;SDS011;57821;52.202;0.154;2023-06-22T03:46:27;11.68;;;6.80;;
70406;SDS011;57821;52.202;0.154;2023-06-22T03:48:53;11.98;;;6.97;;
70406;SDS011;57821;52.202;0.154;2023-06-22T03:51:20;10.27;;;7.22;;
70406;SDS011;57821;52.202;0.154;2023-06-22T03:53:47;11.48;;;7.28;;
70406;SDS011;57821;52.202;0.154;2023-06-22T03:56:13;13.88;;;7.93;;
70406;SDS011;57821;52.202;0.154;2023-06-22T03:58:40;12.70;;;8.10;;
70406;SDS011;57821;52.202;0.154;2023-06-22T04:01:07;13.00;;;8.18;;
70406;SDS011;57821;52.202;0.154;2023-06-22T04:03:33;15.73;;;8.68;;
70406;SDS011;57821;52.202;0.154;2023-06-22T04:06:00;11.55;;;7.30;;
70406;SDS011;57821;52.202;0.154;2023-06-22T04:08:26;14.77;;;7.55;;
70406;SDS011;57821;52.202;0.154;2023-06-22T04:10:53;12.10;;;7.80;;
70406;SDS011;57821;52.202;0.154;2023-06-22T04:13:19;13.13;;;7.55;;
70406;SDS011;57821;52.202;0.154;2023-06-22T04:15:46;13.27;;;7.60;;
70406;SDS011;57821;52.202;0.154;2023-06-22T04:18:13;12.68;;;7.20;;
70406;SDS011;57821;52.202;0.154;2023-06-22T04:20:40;10.77;;;7.47;;
70406;SDS011;57821;52.202;0.154;2023-06-22T04:23:06;15.23;;;7.82;;
70406;SDS011;57821;52.202;0.154;2023-06-22T04:25:33;12.65;;;7.20;;
70406;SDS011;57821;52.202;0.154;2023-06-22T04:28:00;11.68;;;7.53;;
70406;SDS011;57821;52.202;0.154;2023-06-22T04:30:26;12.00;;;7.50;;
70406;SDS011;57821;52.202;0.154;2023-06-22T04:32:53;13.48;;;7.50;;
70406;SDS011;57821;52.202;0.154;2023-06-22T04:35:20;9.05;;;6.55;;
70406;SDS011;57821;52.202;0.154;2023-06-22T04:37:46;11.88;;;7.20;;
70406;SDS011;57821;52.202;0.154;2023-06-22T04:40:13;12.07;;;7.07;;
70406;SDS011;57821;52.202;0.154;2023-06-22T04:42:39;13.23;;;7.10;;
70406;SDS011;57821;52.202;0.154;2023-06-22T04:45:06;16.05;;;8.98;;
70406;SDS011;57821;52.202;0.154;2023-06-22T04:47:33;13.43;;;7.95;;
70406;SDS011;57821;52.202;0.154;2023-06-22T04:49:59;14.18;;;7.85;;
70406;SDS011;57821;52.202;0.154;2023-06-22T04:52:26;12.15;;;7.05;;
70406;SDS011;57821;52.202;0.154;2023-06-22T04:54:52;13.93;;;7.63;;
70406;SDS011;57821;52.202;0.154;2023-06-22T04:57:19;11.18;;;7.43;;
70406;SDS011;57821;52.202;0.154;2023-06-22T04:59:46;11.82;;;7.32;;
70406;SDS011;57821;52.202;0.154;2023-06-22T05:02:12;15.18;;;7.63;;
70406;SDS011;57821;52.202;0.154;2023-06-22T05:04:39;8.63;;;6.32;;
70406;SDS011;57821;52.202;0.154;2023-06-22T05:07:06;10.13;;;6.30;;
70406;SDS011;57821;52.202;0.154;2023-06-22T05:09:33;11.20;;;7.22;;
70406;SDS011;57821;52.202;0.154;2023-06-22T05:12:02;13.23;;;7.28;;
70406;SDS011;57821;52.202;0.154;2023-06-22T05:14:29;14.52;;;7.43;;
70406;SDS011;57821;52.202;0.154;2023-06-22T05:16:56;10.95;;;6.72;;
70406;SDS011;57821;52.202;0.154;2023-06-22T05:19:22;12.23;;;7.03;;
70406;SDS011;57821;52.202;0.154;2023-06-22T05:21:49;11.68;;;6.55;;
70406;SDS011;57821;52.202;0.154;2023-06-22T05:24:16;11.43;;;7.00;;
70406;SDS011;57821;52.202;0.154;2023-06-22T05:26:42;15.43;;;6.90;;
70406;SDS011;57821;52.202;0.154;2023-06-22T05:29:09;12.18;;;6.95;;
70406;SDS011;57821;52.202;0.154;2023-06-22T05:31:35;11.60;;;6.53;;
70406;SDS011;57821;52.202;0.154;2023-06-22T05:34:02;11.75;;;6.60;;
70406;SDS011;57821;52.202;0.154;2023-06-22T05:36:28;14.05;;;6.50;;
70406;SDS011;57821;52.202;0.154;2023-06-22T05:38:56;11.10;;;6.07;;
70406;SDS011;57821;52.202;0.154;2023-06-22T05:41:23;11.77;;;6.65;;
70406;SDS011;57821;52.202;0.154;2023-06-22T05:43:49;13.20;;;7.47;;
70406;SDS011;57821;52.202;0.154;2023-06-22T05:46:16;13.07;;;6.68;;
70406;SDS011;57821;52.202;0.154;2023-06-22T05:48:43;12.80;;;6.68;;
70406;SDS011;57821;52.202;0.154;2023-06-22T05:51:10;13.90;;;6.38;;
70406;SDS011;57821;52.202;0.154;2023-06-22T05:53:36;11.05;;;6.00;;
70406;SDS011;57821;52.202;0.154;2023-06-22T05:56:03;11.60;;;6.10;;
70406;SDS011;57821;52.202;0.154;2023-06-22T05:58:29;12.05;;;6.40;;
70406;SDS011;57821;52.202;0.154;2023-06-22T06:00:56;11.98;;;6.80;;
70406;SDS011;57821;52.202;0.154;2023-06-22T06:03:23;14.93;;;6.45;;
70406;SDS011;57821;52.202;0.154;2023-06-22T06:05:49;10.02;;;6.68;;
70406;SDS011;57821;52.202;0.154;2023-06-22T06:08:16;12.43;;;6.63;;
70406;SDS011;57821;52.202;0.154;2023-06-22T06:10:43;12.25;;;6.43;;
70406;SDS011;57821;52.202;0.154;2023-06-22T06:13:09;11.50;;;6.80;;
70406;SDS011;57821;52.202;0.154;2023-06-22T06:15:36;14.38;;;6.60;;
70406;SDS011;57821;52.202;0.154;2023-06-22T06:18:03;13.35;;;6.43;;
70406;SDS011;57821;52.202;0.154;2023-06-22T06:20:31;12.90;;;6.32;;
70406;SDS011;57821;52.202;0.154;2023-06-22T06:22:58;15.80;;;6.63;;
70406;SDS011;57821;52.202;0.154;2023-06-22T06:25:25;11.35;;;6.20;;
70406;SDS011;57821;52.202;0.154;2023-06-22T06:27:52;11.73;;;6.75;;
70406;SDS011;57821;52.202;0.154;2023-06-22T06:30:18;13.60;;;6.45;;
70406;SDS011;57821;52.202;0.154;2023-06-22T06:32:45;12.10;;;6.63;;
70406;SDS011;57821;52.202;0.154;2023-06-22T06:35:13;14.20;;;7.13;;
70406;SDS011;57821;52.202;0.154;2023-06-22T06:37:41;11.20;;;6.68;;
70406;SDS011;57821;52.202;0.154;2023-06-22T06:40:10;14.15;;;6.70;;
70406;SDS011;57821;52.202;0.154;2023-06-22T06:42:45;12.95;;;7.15;;
70406;SDS011;57821;52.202;0.154;2023-06-22T06:45:22;10.73;;;6.90;;
70406;SDS011;57821;52.202;0.154;2023-06-22T06:47:50;13.35;;;6.60;;
70406;SDS011;57821;52.202;0.154;2023-06-22T06:50:18;13.98;;;6.70;;
70406;SDS011;57821;52.202;0.154;2023-06-22T06:52:45;12.88;;;7.22;;
70406;SDS011;57821;52.202;0.154;2023-06-22T06:55:12;13.45;;;8.15;;
70406;SDS011;57821;52.202;0.154;2023-06-22T06:57:39;14.93;;;7.40;;
70406;SDS011;57821;52.202;0.154;2023-06-22T07:00:06;14.73;;;7.13;;
70406;SDS011;57821;52.202;0.154;2023-06-22T07:02:34;12.27;;;7.70;;
70406;SDS011;57821;52.202;0.154;2023-06-22T07:05:01;14.68;;;8.20;;
70406;SDS011;57821;52.202;0.154;2023-06-22T07:07:27;11.57;;;6.80;;
70406;SDS011;57821;52.202;0.154;2023-06-22T07:09:54;14.52;;;7.55;;
70406;SDS011;57821;52.202;0.154;2023-06-22T07:12:21;13.15;;;7.35;;
70406;SDS011;57821;52.202;0.154;2023-06-22T07:14:47;17.40;;;8.98;;
70406;SDS011;57821;52.202;0.154;2023-06-22T07:17:18;12.65;;;7.15;;
70406;SDS011;57821;52.202;0.154;2023-06-22T07:19:44;10.70;;;6.80;;
70406;SDS011;57821;52.202;0.154;2023-06-22T07:22:11;13.38;;;6.95;;
70406;SDS011;57821;52.202;0.154;2023-06-22T07:24:38;11.63;;;7.05;;
70406;SDS011;57821;52.202;0.154;2023-06-22T07:27:05;11.65;;;6.60;;
70406;SDS011;57821;52.202;0.154;2023-06-22T07:29:32;11.65;;;6.80;;
70406;SDS011;57821;52.202;0.154;2023-06-22T07:31:59;11.45;;;6.32;;
70406;SDS011;57821;52.202;0.154;2023-06-22T07:34:25;10.20;;;5.72;;
70406;SDS011;57821;52.202;0.154;2023-06-22T07:36:52;12.68;;;5.90;;
70406;SDS011;57821;52.202;0.154;2023-06-22T07:39:18;9.57;;;6.30;;
70406;SDS011;57821;52.202;0.154;2023-06-22T07:41:45;9.80;;;5.40;;
70406;SDS011;57821;52.202;0.154;2023-06-22T07:44:12;8.70;;;5.75;;
70406;SDS011;57821;52.202;0.154;2023-06-22T07:46:42;14.38;;;5.47;;
70406;SDS011;57821;52.202;0.154;2023-06-22T07:49:09;14.68;;;5.47;;
70406;SDS011;57821;52.202;0.154;2023-06-22T07:51:35;10.63;;;5.22;;
70406;SDS011;57821;52.202;0.154;2023-06-22T07:54:02;10.85;;;5.70;;
70406;SDS011;57821;52.202;0.154;2023-06-22T07:56:29;10.68;;;5.20;;
70406;SDS011;57821;52.202;0.154;2023-06-22T07:58:55;10.00;;;5.22;;
70406;SDS011;57821;52.202;0.154;2023-06-22T08:01:22;9.02;;;5.65;;
70406;SDS011;57821;52.202;0.154;2023-06-22T08:03:49;15.98;;;5.55;;
70406;SDS011;57821;52.202;0.154;2023-06-22T08:06:16;12.00;;;5.65;;
70406;SDS011;57821;52.202;0.154;2023-06-22T08:08:42;16.45;;;6.13;;
70406;SDS011;57821;52.202;0.154;2023-06-22T08:11:09;9.88;;;4.82;;
70406;SDS011;57821;52.202;0.154;2023-06-22T08:13:35;10.63;;;5.05;;
70406;SDS011;57821;52.202;0.154;2023-06-22T08:16:02;9.23;;;4.50;;
70406;SDS011;57821;52.202;0.154;2023-06-22T08:18:29;10.65;;;4.07;;
70406;SDS011;57821;52.202;0.154;2023-06-22T08:20:55;7.65;;;4.20;;
70406;SDS011;57821;52.202;0.154;2023-06-22T08:23:22;9.77;;;5.05;;
70406;SDS011;57821;52.202;0.154;2023-06-22T08:25:48;7.97;;;4.25;;
70406;SDS011;57821;52.202;0.154;2023-06-22T08:28:16;11.45;;;5.40;;
70406;SDS011;57821;52.202;0.154;2023-06-22T08:30:42;8.20;;;4.72;;
70406;SDS011;57821;52.202;0.154;2023-06-22T08:33:09;6.97;;;3.42;;
70406;SDS011;57821;52.202;0.154;2023-06-22T08:38:06;9.23;;;3.70;;
70406;SDS011;57821;52.202;0.154;2023-06-22T08:40:33;8.38;;;4.10;;
70406;SDS011;57821;52.202;0.154;2023-06-22T08:43:00;9.38;;;4.93;;
70406;SDS011;57821;52.202;0.154;2023-06-22T08:45:26;11.05;;;4.03;;
70406;SDS011;57821;52.202;0.154;2023-06-22T08:47:56;9.15;;;4.25;;
70406;SDS011;57821;52.202;0.154;2023-06-22T08:50:22;10.75;;;4.10;;
70406;SDS011;57821;52.202;0.154;2023-06-22T08:52:49;9.13;;;4.20;;
70406;SDS011;57821;52.202;0.154;2023-06-22T08:55:16;7.95;;;3.92;;
70406;SDS011;57821;52.202;0.154;2023-06-22T08:57:42;11.18;;;3.50;;
70406;SDS011;57821;52.202;0.154;2023-06-22T09:00:09;10.13;;;3.72;;
70406;SDS011;57821;52.202;0.154;2023-06-22T09:02:36;7.60;;;3.30;;
70406;SDS011;57821;52.202;0.154;2023-06-22T09:05:03;9.13;;;3.58;;
70406;SDS011;57821;52.202;0.154;2023-06-22T09:07:30;8.63;;;3.67;;
70406;SDS011;57821;52.202;0.154;2023-06-22T09:09:57;13.25;;;3.47;;
70406;SDS011;57821;52.202;0.154;2023-06-22T09:12:23;9.40;;;3.88;;
70406;SDS011;57821;52.202;0.154;2023-06-22T09:14:50;10.82;;;3.60;;
70406;SDS011;57821;52.202;0.154;2023-06-22T09:17:16;7.93;;;3.70;;
70406;SDS011;57821;52.202;0.154;2023-06-22T09:19:43;9.95;;;4.38;;
70406;SDS011;57821;52.202;0.154;2023-06-22T09:22:11;14.85;;;4.28;;
70406;SDS011;57821;52.202;0.154;2023-06-22T09:24:37;10.98;;;4.18;;
70406;SDS011;57821;52.202;0.154;2023-06-22T09:27:04;10.10;;;3.72;;
70406;SDS011;57821;52.202;0.154;2023-06-22T09:29:31;9.70;;;3.78;;
70406;SDS011;57821;52.202;0.154;2023-06-22T09:31:57;8.70;;;3.65;;
70406;SDS011;57821;52.202;0.154;2023-06-22T09:34:24;8.25;;;3.95;;
70406;SDS011;57821;52.202;0.154;2023-06-22T09:36:50;10.43;;;3.58;;
70406;SDS011;57821;52.202;0.154;2023-06-22T09:39:20;9.32;;;3.60;;
70406;SDS011;57821;52.202;0.154;2023-06-22T09:41:47;9.82;;;4.13;;
70406;SDS011;57821;52.202;0.154;2023-06-22T09:44:13;7.03;;;3.70;;
70406;SDS011;57821;52.202;0.154;2023-06-22T09:46:40;7.15;;;3.60;;
70406;SDS011;57821;52.202;0.154;2023-06-22T09:49:06;9.05;;;3.17;;
70406;SDS011;57821;52.202;0.154;2023-06-22T09:51:33;9.45;;;3.80;;
70406;SDS011;57821;52.202;0.154;2023-06-22T09:53:59;6.22;;;3.47;;
70406;SDS011;57821;52.202;0.154;2023-06-22T09:56:26;9.00;;;3.92;;
70406;SDS011;57821;52.202;0.154;2023-06-22T09:58:55;9.35;;;4.38;;
70406;SDS011;57821;52.202;0.154;2023-06-22T10:01:39;7.95;;;3.97;;
70406;SDS011;57821;52.202;0.154;2023-06-22T10:04:05;6.55;;;3.63;;
70406;SDS011;57821;52.202;0.154;2023-06-22T10:06:32;7.43;;;3.30;;
70406;SDS011;57821;52.202;0.154;2023-06-22T10:08:59;8.23;;;3.22;;
70406;SDS011;57821;52.202;0.154;2023-06-22T10:11:25;6.40;;;3.38;;
70406;SDS011;57821;52.202;0.154;2023-06-22T10:13:52;9.43;;;3.47;;
70406;SDS011;57821;52.202;0.154;2023-06-22T10:16:18;8.27;;;3.47;;
70406;SDS011;57821;52.202;0.154;2023-06-22T10:18:45;7.75;;;3.17;;
70406;SDS011;57821;52.202;0.154;2023-06-22T10:21:12;6.10;;;2.92;;
70406;SDS011;57821;52.202;0.154;2023-06-22T10:23:38;5.90;;;3.00;;
70406;SDS011;57821;52.202;0.154;2023-06-22T10:26:05;5.85;;;3.67;;
70406;SDS011;57821;52.202;0.154;2023-06-22T10:28:31;6.45;;;2.83;;
70406;SDS011;57821;52.202;0.154;2023-06-22T10:30:58;7.07;;;2.83;;
70406;SDS011;57821;52.202;0.154;2023-06-22T10:33:25;7.95;;;2.88;;
70406;SDS011;57821;52.202;0.154;2023-06-22T10:35:51;7.80;;;3.03;;
70406;SDS011;57821;52.202;0.154;2023-06-22T10:38:18;7.90;;;2.50;;
70406;SDS011;57821;52.202;0.154;2023-06-22T10:40:45;5.43;;;2.47;;
70406;SDS011;57821;52.202;0.154;2023-06-22T10:43:11;7.70;;;2.78;;
70406;SDS011;57821;52.202;0.154;2023-06-22T10:45:39;6.80;;;2.65;;
70406;SDS011;57821;52.202;0.154;2023-06-22T10:48:05;6.18;;;2.40;;
70406;SDS011;57821;52.202;0.154;2023-06-22T10:50:32;5.15;;;2.58;;
70406;SDS011;57821;52.202;0.154;2023-06-22T10:52:58;6.05;;;2.83;;
70406;SDS011;57821;52.202;0.154;2023-06-22T10:55:26;5.88;;;2.80;;
70406;SDS011;57821;52.202;0.154;2023-06-22T10:57:54;6.30;;;2.80;;
70406;SDS011;57821;52.202;0.154;2023-06-22T11:00:27;7.97;;;2.45;;
70406;SDS011;57821;52.202;0.154;2023-06-22T11:02:54;5.88;;;2.38;;
70406;SDS011;57821;52.202;0.154;2023-06-22T11:05:21;7.18;;;3.60;;
70406;SDS011;57821;52.202;0.154;2023-06-22T11:07:47;6.40;;;2.60;;
70406;SDS011;57821;52.202;0.154;2023-06-22T11:10:14;6.68;;;2.30;;
70406;SDS011;57821;52.202;0.154;2023-06-22T11:12:41;9.70;;;2.38;;
70406;SDS011;57821;52.202;0.154;2023-06-22T11:15:08;6.60;;;2.40;;
70406;SDS011;57821;52.202;0.154;2023-06-22T11:17:35;6.85;;;2.47;;
70406;SDS011;57821;52.202;0.154;2023-06-22T11:20:02;6.63;;;2.30;;
70406;SDS011;57821;52.202;0.154;2023-06-22T11:22:29;5.28;;;2.53;;
70406;SDS011;57821;52.202;0.154;2023-06-22T11:24:55;6.55;;;2.58;;
70406;SDS011;57821;52.202;0.154;2023-06-22T11:27:22;5.72;;;2.58;;
70406;SDS011;57821;52.202;0.154;2023-06-22T11:29:48;7.70;;;2.65;;
70406;SDS011;57821;52.202;0.154;2023-06-22T11:32:15;5.68;;;2.83;;
70406;SDS011;57821;52.202;0.154;2023-06-22T11:34:41;5.05;;;2.63;;
70406;SDS011;57821;52.202;0.154;2023-06-22T11:37:08;5.65;;;2.60;;
70406;SDS011;57821;52.202;0.154;2023-06-22T11:39:34;5.25;;;2.25;;
70406;SDS011;57821;52.202;0.154;2023-06-22T11:42:13;6.80;;;2.40;;
70406;SDS011;57821;52.202;0.154;2023-06-22T11:44:39;6.45;;;2.90;;
70406;SDS011;57821;52.202;0.154;2023-06-22T11:47:06;7.05;;;3.50;;
70406;SDS011;57821;52.202;0.154;2023-06-22T11:49:33;5.95;;;2.63;;
70406;SDS011;57821;52.202;0.154;2023-06-22T11:51:59;7.95;;;2.70;;
70406;SDS011;57821;52.202;0.154;2023-06-22T11:54:26;5.57;;;2.90;;
70406;SDS011;57821;52.202;0.154;2023-06-22T11:56:52;6.28;;;2.90;;
70406;SDS011;57821;52.202;0.154;2023-06-22T11:59:19;8.55;;;2.67;;
70406;SDS011;57821;52.202;0.154;2023-06-22T12:01:46;7.65;;;2.90;;
70406;SDS011;57821;52.202;0.154;2023-06-22T12:04:12;7.50;;;3.60;;
70406;SDS011;57821;52.202;0.154;2023-06-22T12:06:39;5.80;;;2.58;;
70406;SDS011;57821;52.202;0.154;2023-06-22T12:09:05;7.15;;;2.65;;
70406;SDS011;57821;52.202;0.154;2023-06-22T12:11:32;6.40;;;2.40;;
70406;SDS011;57821;52.202;0.154;2023-06-22T12:13:58;5.43;;;2.47;;
70406;SDS011;57821;52.202;0.154;2023-06-22T12:16:25;9.65;;;2.83;;
70406;SDS011;57821;52.202;0.154;2023-06-22T12:18:52;6.22;;;2.67;;
70406;SDS011;57821;52.202;0.154;2023-06-22T12:21:18;7.05;;;2.85;;
70406;SDS011;57821;52.202;0.154;2023-06-22T12:23:45;6.78;;;2.38;;
70406;SDS011;57821;52.202;0.154;2023-06-22T12:26:11;7.00;;;2.70;;
70406;SDS011;57821;52.202;0.154;2023-06-22T12:28:38;6.32;;;2.30;;
70406;SDS011;57821;52.202;0.154;2023-06-22T12:31:04;5.43;;;2.20;;
70406;SDS011;57821;52.202;0.154;2023-06-22T12:33:31;5.88;;;2.45;;
70406;SDS011;57821;52.202;0.154;2023-06-22T12:35:58;5.32;;;2.03;;
70406;SDS011;57821;52.202;0.154;2023-06-22T12:38:24;6.43;;;2.65;;
70406;SDS011;57821;52.202;0.154;2023-06-22T12:40:51;7.25;;;2.45;;
70406;SDS011;57821;52.202;0.154;2023-06-22T12:43:18;9.00;;;2.53;;
70406;SDS011;57821;52.202;0.154;2023-06-22T12:45:45;8.73;;;2.40;;
70406;SDS011;57821;52.202;0.154;2023-06-22T12:48:11;6.10;;;2.72;;
70406;SDS011;57821;52.202;0.154;2023-06-22T12:50:38;4.45;;;2.20;;
70406;SDS011;57821;52.202;0.154;2023-06-22T12:53:05;7.65;;;2.88;;
70406;SDS011;57821;52.202;0.154;2023-06-22T12:55:31;7.10;;;3.00;;
70406;SDS011;57821;52.202;0.154;2023-06-22T12:57:58;6.45;;;2.80;;
70406;SDS011;57821;52.202;0.154;2023-06-22T13:00:26;6.30;;;2.58;;
70406;SDS011;57821;52.202;0.154;2023-06-22T13:02:53;7.13;;;2.88;;
70406;SDS011;57821;52.202;0.154;2023-06-22T13:05:22;6.60;;;2.67;;
70406;SDS011;57821;52.202;0.154;2023-06-22T13:07:49;9.10;;;2.60;;
70406;SDS011;57821;52.202;0.154;2023-06-22T13:10:15;6.63;;;2.33;;
70406;SDS011;57821;52.202;0.154;2023-06-22T13:12:42;7.97;;;2.53;;
70406;SDS011;57821;52.202;0.154;2023-06-22T13:15:08;9.25;;;2.65;;
70406;SDS011;57821;52.202;0.154;2023-06-22T13:17:35;7.28;;;2.50;;
70406;SDS011;57821;52.202;0.154;2023-06-22T13:20:02;6.10;;;2.53;;
70406;SDS011;57821;52.202;0.154;2023-06-22T13:22:30;7.05;;;2.35;;
70406;SDS011;57821;52.202;0.154;2023-06-22T13:24:57;9.68;;;2.80;;
70406;SDS011;57821;52.202;0.154;2023-06-22T13:27:24;5.60;;;2.17;;
70406;SDS011;57821;52.202;0.154;2023-06-22T13:29:51;5.70;;;2.30;;
70406;SDS011;57821;52.202;0.154;2023-06-22T13:32:17;8.80;;;2.30;;
70406;SDS011;57821;52.202;0.154;2023-06-22T13:34:44;6.47;;;2.60;;
70406;SDS011;57821;52.202;0.154;2023-06-22T13:37:12;9.52;;;2.70;;
70406;SDS011;57821;52.202;0.154;2023-06-22T13:39:38;12.77;;;2.97;;
70406;SDS011;57821;52.202;0.154;2023-06-22T13:42:05;10.25;;;2.47;;
70406;SDS011;57821;52.202;0.154;2023-06-22T13:44:32;6.80;;;2.40;;
70406;SDS011;57821;52.202;0.154;2023-06-22T13:46:59;6.38;;;2.28;;
70406;SDS011;57821;52.202;0.154;2023-06-22T13:49:26;10.13;;;2.90;;
70406;SDS011;57821;52.202;0.154;2023-06-22T13:51:52;5.53;;;2.20;;
70406;SDS011;57821;52.202;0.154;2023-06-22T13:54:19;6.43;;;2.95;;
70406;SDS011;57821;52.202;0.154;2023-06-22T13:56:48;10.02;;;2.65;;
70406;SDS011;57821;52.202;0.154;2023-06-22T13:59:15;5.45;;;2.10;;
70406;SDS011;57821;52.202;0.154;2023-06-22T14:01:41;6.07;;;2.38;;
70406;SDS011;57821;52.202;0.154;2023-06-22T14:04:08;6.03;;;2.40;;
70406;SDS011;57821;52.202;0.154;2023-06-22T14:06:36;5.88;;;2.55;;
70406;SDS011;57821;52.202;0.154;2023-06-22T14:09:02;5.45;;;2.20;;
70406;SDS011;57821;52.202;0.154;2023-06-22T14:11:29;7.50;;;2.95;;
70406;SDS011;57821;52.202;0.154;2023-06-22T14:13:55;9.50;;;2.30;;
70406;SDS011;57821;52.202;0.154;2023-06-22T14:16:22;5.88;;;2.28;;
70406;SDS011;57821;52.202;0.154;2023-06-22T14:18:49;6.35;;;2.20;;
70406;SDS011;57821;52.202;0.154;2023-06-22T14:21:15;6.60;;;1.88;;
70406;SDS011;57821;52.202;0.154;2023-06-22T14:23:42;4.40;;;1.95;;
70406;SDS011;57821;52.202;0.154;2023-06-22T14:26:08;6.03;;;2.00;;
70406;SDS011;57821;52.202;0.154;2023-06-22T14:28:35;10.52;;;2.20;;
70406;SDS011;57821;52.202;0.154;2023-06-22T14:31:02;6.90;;;2.10;;
70406;SDS011;57821;52.202;0.154;2023-06-22T14:33:28;6.93;;;2.22;;
70406;SDS011;57821;52.202;0.154;2023-06-22T14:35:55;5.20;;;2.45;;
70406;SDS011;57821;52.202;0.154;2023-06-22T14:38:22;5.68;;;2.25;;
70406;SDS011;57821;52.202;0.154;2023-06-22T14:40:48;4.80;;;2.00;;
70406;SDS011;57821;52.202;0.154;2023-06-22T14:43:35;7.45;;;1.83;;
70406;SDS011;57821;52.202;0.154;2023-06-22T14:46:01;5.82;;;2.22;;